sensor_id;sensor_type;location;lat;lon;timestamp;P1;durP1;ratioP1;P2;durP2;ratioP2
37715;SDS011;23562;50.540;12.504;2022-09-02T00:01:17;3.57;;;2.13;;
37715;SDS011;23562;50.540;12.504;2022-09-02T00:06:13;2.55;;;1.75;;
37715;SDS011;23562;50.540;12.504;2022-09-02T00:08:40;4.25;;;2.03;;
37715;SDS011;23562;50.540;12.504;2022-09-02T00:11:06;4.82;;;2.35;;
37715;SDS011;23562;50.540;12.504;2022-09-02T00:13:34;4.40;;;2.03;;
37715;SDS011;23562;50.540;12.504;2022-09-02T00:16:01;2.95;;;1.92;;
37715;SDS011;23562;50.540;12.504;2022-09-02T00:18:27;4.47;;;1.80;;
37715;SDS011;23562;50.540;12.504;2022-09-02T00:20:54;4.25;;;2.38;;
37715;SDS011;23562;50.540;12.504;2022-09-02T00:23:19;3.78;;;2.33;;
37715;SDS011;23562;50.540;12.504;2022-09-02T00:25:44;4.35;;;2.05;;
37715;SDS011;23562;50.540;12.504;2022-09-02T00:28:11;5.22;;;2.92;;
37715;SDS011;23562;50.540;12.504;2022-09-02T00:30:38;3.47;;;2.30;;
37715;SDS011;23562;50.540;12.504;2022-09-02T00:33:04;4.18;;;1.90;;
37715;SDS011;23562;50.540;12.504;2022-09-02T00:35:30;3.72;;;2.50;;
37715;SDS011;23562;50.540;12.504;2022-09-02T00:37:56;2.80;;;1.95;;
37715;SDS011;23562;50.540;12.504;2022-09-02T00:40:21;3.00;;;2.08;;
37715;SDS011;23562;50.540;12.504;2022-09-02T00:42:48;5.85;;;2.20;;
37715;SDS011;23562;50.540;12.504;2022-09-02T00:45:14;3.05;;;2.03;;
37715;SDS011;23562;50.540;12.504;2022-09-02T00:47:51;6.07;;;2.20;;
37715;SDS011;23562;50.540;12.504;2022-09-02T00:50:18;8.00;;;2.17;;
37715;SDS011;23562;50.540;12.504;2022-09-02T00:52:49;2.42;;;1.70;;
37715;SDS011;23562;50.540;12.504;2022-09-02T00:55:21;5.40;;;2.17;;
37715;SDS011;23562;50.540;12.504;2022-09-02T00:57:58;6.03;;;2.22;;
37715;SDS011;23562;50.540;12.504;2022-09-02T01:00:38;6.13;;;1.95;;
37715;SDS011;23562;50.540;12.504;2022-09-02T01:03:09;2.90;;;1.98;;
37715;SDS011;23562;50.540;12.504;2022-09-02T01:05:39;3.45;;;1.90;;
37715;SDS011;23562;50.540;12.504;2022-09-02T01:08:09;5.40;;;2.33;;
37715;SDS011;23562;50.540;12.504;2022-09-02T01:10:39;3.35;;;1.75;;
37715;SDS011;23562;50.540;12.504;2022-09-02T01:13:07;4.95;;;2.33;;
37715;SDS011;23562;50.540;12.504;2022-09-02T01:15:37;6.10;;;2.50;;
37715;SDS011;23562;50.540;12.504;2022-09-02T01:18:05;3.47;;;2.20;;
37715;SDS011;23562;50.540;12.504;2022-09-02T01:20:33;2.70;;;2.17;;
37715;SDS011;23562;50.540;12.504;2022-09-02T01:22:58;4.37;;;2.13;;
37715;SDS011;23562;50.540;12.504;2022-09-02T01:25:25;6.00;;;2.10;;
37715;SDS011;23562;50.540;12.504;2022-09-02T01:27:53;3.45;;;1.83;;
37715;SDS011;23562;50.540;12.504;2022-09-02T01:30:24;3.60;;;1.70;;
37715;SDS011;23562;50.540;12.504;2022-09-02T01:32:49;5.28;;;2.20;;
37715;SDS011;23562;50.540;12.504;2022-09-02T01:35:15;3.65;;;1.70;;
37715;SDS011;23562;50.540;12.504;2022-09-02T01:37:40;2.55;;;1.60;;
37715;SDS011;23562;50.540;12.504;2022-09-02T01:40:08;1.85;;;1.70;;
37715;SDS011;23562;50.540;12.504;2022-09-02T01:42:35;2.85;;;1.70;;
37715;SDS011;23562;50.540;12.504;2022-09-02T01:45:00;5.03;;;1.90;;
37715;SDS011;23562;50.540;12.504;2022-09-02T01:47:26;2.20;;;1.55;;
37715;SDS011;23562;50.540;12.504;2022-09-02T01:49:51;3.88;;;1.60;;
37715;SDS011;23562;50.540;12.504;2022-09-02T01:52:17;2.20;;;1.63;;
37715;SDS011;23562;50.540;12.504;2022-09-02T01:54:44;3.30;;;1.60;;
37715;SDS011;23562;50.540;12.504;2022-09-02T01:57:10;2.17;;;1.50;;
37715;SDS011;23562;50.540;12.504;2022-09-02T01:59:35;3.55;;;1.75;;
37715;SDS011;23562;50.540;12.504;2022-09-02T02:02:01;3.22;;;1.48;;
37715;SDS011;23562;50.540;12.504;2022-09-02T02:04:39;2.42;;;1.45;;
37715;SDS011;23562;50.540;12.504;2022-09-02T02:07:05;1.48;;;1.27;;
37715;SDS011;23562;50.540;12.504;2022-09-02T02:09:30;3.40;;;1.65;;
37715;SDS011;23562;50.540;12.504;2022-09-02T02:11:56;5.13;;;1.50;;
37715;SDS011;23562;50.540;12.504;2022-09-02T02:14:21;2.05;;;1.60;;
37715;SDS011;23562;50.540;12.504;2022-09-02T02:16:47;2.38;;;1.55;;
37715;SDS011;23562;50.540;12.504;2022-09-02T02:19:12;5.18;;;1.70;;
37715;SDS011;23562;50.540;12.504;2022-09-02T02:21:38;4.88;;;1.70;;
37715;SDS011;23562;50.540;12.504;2022-09-02T02:24:03;2.17;;;1.45;;
37715;SDS011;23562;50.540;12.504;2022-09-02T02:26:29;3.45;;;1.75;;
37715;SDS011;23562;50.540;12.504;2022-09-02T02:28:55;3.30;;;1.63;;
37715;SDS011;23562;50.540;12.504;2022-09-02T02:31:20;4.25;;;1.90;;
37715;SDS011;23562;50.540;12.504;2022-09-02T02:33:45;4.72;;;1.90;;
37715;SDS011;23562;50.540;12.504;2022-09-02T02:36:11;4.88;;;1.95;;
37715;SDS011;23562;50.540;12.504;2022-09-02T02:38:37;2.35;;;1.63;;
37715;SDS011;23562;50.540;12.504;2022-09-02T02:41:04;2.97;;;1.67;;
37715;SDS011;23562;50.540;12.504;2022-09-02T02:43:30;3.15;;;1.60;;
37715;SDS011;23562;50.540;12.504;2022-09-02T02:45:55;3.05;;;1.92;;
37715;SDS011;23562;50.540;12.504;2022-09-02T02:48:21;2.10;;;1.60;;
37715;SDS011;23562;50.540;12.504;2022-09-02T02:50:46;5.63;;;1.90;;
37715;SDS011;23562;50.540;12.504;2022-09-02T02:53:12;6.03;;;2.10;;
37715;SDS011;23562;50.540;12.504;2022-09-02T02:55:37;2.97;;;1.80;;
37715;SDS011;23562;50.540;12.504;2022-09-02T02:58:03;4.38;;;1.98;;
37715;SDS011;23562;50.540;12.504;2022-09-02T03:00:29;3.85;;;1.80;;
37715;SDS011;23562;50.540;12.504;2022-09-02T03:03:08;2.85;;;1.70;;
37715;SDS011;23562;50.540;12.504;2022-09-02T03:05:35;3.03;;;1.60;;
37715;SDS011;23562;50.540;12.504;2022-09-02T03:08:02;7.15;;;1.70;;
37715;SDS011;23562;50.540;12.504;2022-09-02T03:10:29;3.75;;;1.80;;
37715;SDS011;23562;50.540;12.504;2022-09-02T03:12:56;2.45;;;1.65;;
37715;SDS011;23562;50.540;12.504;2022-09-02T03:15:22;4.68;;;2.00;;
37715;SDS011;23562;50.540;12.504;2022-09-02T03:17:48;4.40;;;1.75;;
37715;SDS011;23562;50.540;12.504;2022-09-02T03:20:13;4.32;;;2.25;;
37715;SDS011;23562;50.540;12.504;2022-09-02T03:22:41;4.50;;;1.92;;
37715;SDS011;23562;50.540;12.504;2022-09-02T03:25:08;2.83;;;2.08;;
37715;SDS011;23562;50.540;12.504;2022-09-02T03:27:38;2.67;;;2.13;;
37715;SDS011;23562;50.540;12.504;2022-09-02T03:30:06;3.33;;;1.80;;
37715;SDS011;23562;50.540;12.504;2022-09-02T03:32:33;4.00;;;2.10;;
37715;SDS011;23562;50.540;12.504;2022-09-02T03:34:59;2.60;;;1.80;;
37715;SDS011;23562;50.540;12.504;2022-09-02T03:37:25;7.32;;;2.38;;
37715;SDS011;23562;50.540;12.504;2022-09-02T03:39:51;2.33;;;1.83;;
37715;SDS011;23562;50.540;12.504;2022-09-02T03:42:16;4.05;;;2.15;;
37715;SDS011;23562;50.540;12.504;2022-09-02T03:44:41;3.27;;;1.93;;
37715;SDS011;23562;50.540;12.504;2022-09-02T03:47:06;4.80;;;1.92;;
37715;SDS011;23562;50.540;12.504;2022-09-02T03:52:37;3.88;;;2.10;;
37715;SDS011;23562;50.540;12.504;2022-09-02T03:55:05;4.03;;;2.03;;
37715;SDS011;23562;50.540;12.504;2022-09-02T03:57:30;4.25;;;1.90;;
37715;SDS011;23562;50.540;12.504;2022-09-02T03:59:56;7.55;;;2.20;;
37715;SDS011;23562;50.540;12.504;2022-09-02T04:02:21;4.20;;;2.10;;
37715;SDS011;23562;50.540;12.504;2022-09-02T04:04:48;6.60;;;2.20;;
37715;SDS011;23562;50.540;12.504;2022-09-02T04:07:13;3.80;;;1.85;;
37715;SDS011;23562;50.540;12.504;2022-09-02T04:09:38;6.35;;;2.20;;
37715;SDS011;23562;50.540;12.504;2022-09-02T04:12:04;2.30;;;2.00;;
37715;SDS011;23562;50.540;12.504;2022-09-02T04:14:29;3.90;;;1.73;;
37715;SDS011;23562;50.540;12.504;2022-09-02T04:16:54;2.03;;;1.70;;
37715;SDS011;23562;50.540;12.504;2022-09-02T04:19:21;4.35;;;1.90;;
37715;SDS011;23562;50.540;12.504;2022-09-02T04:21:46;4.55;;;2.05;;
37715;SDS011;23562;50.540;12.504;2022-09-02T04:24:11;5.43;;;1.90;;
37715;SDS011;23562;50.540;12.504;2022-09-02T04:26:37;4.50;;;2.40;;
37715;SDS011;23562;50.540;12.504;2022-09-02T04:29:03;4.85;;;2.58;;
37715;SDS011;23562;50.540;12.504;2022-09-02T04:31:28;5.17;;;2.33;;
37715;SDS011;23562;50.540;12.504;2022-09-02T04:33:54;5.20;;;3.03;;
37715;SDS011;23562;50.540;12.504;2022-09-02T04:36:21;3.92;;;2.10;;
37715;SDS011;23562;50.540;12.504;2022-09-02T04:38:46;4.55;;;2.20;;
37715;SDS011;23562;50.540;12.504;2022-09-02T04:41:13;4.35;;;2.60;;
37715;SDS011;23562;50.540;12.504;2022-09-02T04:43:41;2.85;;;2.00;;
37715;SDS011;23562;50.540;12.504;2022-09-02T04:46:07;3.70;;;2.08;;
37715;SDS011;23562;50.540;12.504;2022-09-02T04:48:35;3.08;;;1.90;;
37715;SDS011;23562;50.540;12.504;2022-09-02T04:51:04;3.47;;;2.40;;
37715;SDS011;23562;50.540;12.504;2022-09-02T04:53:31;4.30;;;2.60;;
37715;SDS011;23562;50.540;12.504;2022-09-02T04:55:56;2.70;;;2.08;;
37715;SDS011;23562;50.540;12.504;2022-09-02T04:58:37;4.20;;;2.25;;
37715;SDS011;23562;50.540;12.504;2022-09-02T05:01:09;3.55;;;2.10;;
37715;SDS011;23562;50.540;12.504;2022-09-02T05:03:35;5.38;;;2.05;;
37715;SDS011;23562;50.540;12.504;2022-09-02T05:06:02;3.53;;;2.47;;
37715;SDS011;23562;50.540;12.504;2022-09-02T05:08:32;2.85;;;2.00;;
37715;SDS011;23562;50.540;12.504;2022-09-02T05:11:05;4.03;;;2.05;;
37715;SDS011;23562;50.540;12.504;2022-09-02T05:13:35;2.75;;;1.80;;
37715;SDS011;23562;50.540;12.504;2022-09-02T05:16:00;8.33;;;2.10;;
37715;SDS011;23562;50.540;12.504;2022-09-02T05:18:26;4.40;;;1.63;;
37715;SDS011;23562;50.540;12.504;2022-09-02T05:20:52;2.30;;;1.75;;
37715;SDS011;23562;50.540;12.504;2022-09-02T05:23:17;2.33;;;1.88;;
37715;SDS011;23562;50.540;12.504;2022-09-02T05:25:43;3.67;;;2.10;;
37715;SDS011;23562;50.540;12.504;2022-09-02T05:28:21;2.80;;;1.90;;
37715;SDS011;23562;50.540;12.504;2022-09-02T05:30:46;4.85;;;2.25;;
37715;SDS011;23562;50.540;12.504;2022-09-02T05:33:11;3.20;;;2.13;;
37715;SDS011;23562;50.540;12.504;2022-09-02T05:35:40;4.43;;;2.25;;
37715;SDS011;23562;50.540;12.504;2022-09-02T05:38:06;3.65;;;2.20;;
37715;SDS011;23562;50.540;12.504;2022-09-02T05:40:32;3.65;;;2.30;;
37715;SDS011;23562;50.540;12.504;2022-09-02T05:42:58;3.67;;;1.98;;
37715;SDS011;23562;50.540;12.504;2022-09-02T05:45:23;4.85;;;2.15;;
37715;SDS011;23562;50.540;12.504;2022-09-02T05:47:49;3.60;;;2.10;;
37715;SDS011;23562;50.540;12.504;2022-09-02T05:50:14;3.95;;;2.00;;
37715;SDS011;23562;50.540;12.504;2022-09-02T05:52:40;4.10;;;1.92;;
37715;SDS011;23562;50.540;12.504;2022-09-02T05:55:06;2.80;;;1.77;;
37715;SDS011;23562;50.540;12.504;2022-09-02T05:57:31;4.70;;;1.90;;
37715;SDS011;23562;50.540;12.504;2022-09-02T05:59:56;3.72;;;2.08;;
37715;SDS011;23562;50.540;12.504;2022-09-02T06:05:10;4.85;;;1.95;;
37715;SDS011;23562;50.540;12.504;2022-09-02T06:07:36;5.95;;;2.30;;
37715;SDS011;23562;50.540;12.504;2022-09-02T06:10:01;3.95;;;2.60;;
37715;SDS011;23562;50.540;12.504;2022-09-02T06:12:27;3.78;;;2.53;;
37715;SDS011;23562;50.540;12.504;2022-09-02T06:14:54;2.95;;;2.50;;
37715;SDS011;23562;50.540;12.504;2022-09-02T06:17:20;3.67;;;2.33;;
37715;SDS011;23562;50.540;12.504;2022-09-02T06:19:45;4.85;;;2.35;;
37715;SDS011;23562;50.540;12.504;2022-09-02T06:22:11;3.45;;;2.33;;
37715;SDS011;23562;50.540;12.504;2022-09-02T06:24:36;9.52;;;2.63;;
37715;SDS011;23562;50.540;12.504;2022-09-02T06:27:01;7.32;;;2.10;;
37715;SDS011;23562;50.540;12.504;2022-09-02T06:29:26;3.43;;;2.10;;
37715;SDS011;23562;50.540;12.504;2022-09-02T06:31:52;3.47;;;2.20;;
37715;SDS011;23562;50.540;12.504;2022-09-02T06:34:20;3.08;;;2.13;;
37715;SDS011;23562;50.540;12.504;2022-09-02T06:36:47;3.10;;;2.17;;
37715;SDS011;23562;50.540;12.504;2022-09-02T06:39:16;2.38;;;1.83;;
37715;SDS011;23562;50.540;12.504;2022-09-02T06:41:41;4.93;;;2.00;;
37715;SDS011;23562;50.540;12.504;2022-09-02T06:44:12;3.72;;;2.08;;
37715;SDS011;23562;50.540;12.504;2022-09-02T06:46:38;3.97;;;2.10;;
37715;SDS011;23562;50.540;12.504;2022-09-02T06:49:09;5.22;;;2.10;;
37715;SDS011;23562;50.540;12.504;2022-09-02T06:51:50;2.67;;;1.67;;
37715;SDS011;23562;50.540;12.504;2022-09-02T06:54:18;2.00;;;1.60;;
37715;SDS011;23562;50.540;12.504;2022-09-02T06:56:44;5.78;;;2.05;;
37715;SDS011;23562;50.540;12.504;2022-09-02T06:59:10;5.40;;;2.03;;
37715;SDS011;23562;50.540;12.504;2022-09-02T07:01:36;3.40;;;1.70;;
37715;SDS011;23562;50.540;12.504;2022-09-02T07:04:02;3.50;;;1.70;;
37715;SDS011;23562;50.540;12.504;2022-09-02T07:06:47;4.53;;;1.80;;
37715;SDS011;23562;50.540;12.504;2022-09-02T07:09:15;1.60;;;1.30;;
37715;SDS011;23562;50.540;12.504;2022-09-02T07:11:55;2.08;;;1.40;;
37715;SDS011;23562;50.540;12.504;2022-09-02T07:14:21;2.72;;;1.50;;
37715;SDS011;23562;50.540;12.504;2022-09-02T07:16:49;3.55;;;1.75;;
37715;SDS011;23562;50.540;12.504;2022-09-02T07:19:21;5.68;;;1.45;;
37715;SDS011;23562;50.540;12.504;2022-09-02T07:21:47;3.90;;;1.73;;
37715;SDS011;23562;50.540;12.504;2022-09-02T07:24:13;1.98;;;1.60;;
37715;SDS011;23562;50.540;12.504;2022-09-02T07:26:39;1.83;;;1.50;;
37715;SDS011;23562;50.540;12.504;2022-09-02T07:29:05;2.33;;;1.50;;
37715;SDS011;23562;50.540;12.504;2022-09-02T07:31:32;2.72;;;1.55;;
37715;SDS011;23562;50.540;12.504;2022-09-02T07:33:59;2.10;;;1.40;;
37715;SDS011;23562;50.540;12.504;2022-09-02T07:36:25;2.63;;;1.55;;
37715;SDS011;23562;50.540;12.504;2022-09-02T07:38:51;2.70;;;1.40;;
37715;SDS011;23562;50.540;12.504;2022-09-02T07:41:18;2.70;;;1.40;;
37715;SDS011;23562;50.540;12.504;2022-09-02T07:43:44;5.18;;;1.50;;
37715;SDS011;23562;50.540;12.504;2022-09-02T07:46:09;2.10;;;1.30;;
37715;SDS011;23562;50.540;12.504;2022-09-02T07:48:34;2.13;;;1.42;;
37715;SDS011;23562;50.540;12.504;2022-09-02T07:51:00;1.95;;;1.40;;
37715;SDS011;23562;50.540;12.504;2022-09-02T07:53:25;2.22;;;1.50;;
37715;SDS011;23562;50.540;12.504;2022-09-02T07:55:51;3.38;;;1.75;;
37715;SDS011;23562;50.540;12.504;2022-09-02T07:58:17;3.55;;;1.30;;
37715;SDS011;23562;50.540;12.504;2022-09-02T08:00:44;3.42;;;1.30;;
37715;SDS011;23562;50.540;12.504;2022-09-02T08:03:11;2.30;;;1.35;;
37715;SDS011;23562;50.540;12.504;2022-09-02T08:05:37;1.45;;;1.23;;
37715;SDS011;23562;50.540;12.504;2022-09-02T08:08:04;4.35;;;1.50;;
37715;SDS011;23562;50.540;12.504;2022-09-02T08:10:31;1.45;;;1.27;;
37715;SDS011;23562;50.540;12.504;2022-09-02T08:12:59;4.75;;;1.48;;
37715;SDS011;23562;50.540;12.504;2022-09-02T08:15:29;2.97;;;1.15;;
37715;SDS011;23562;50.540;12.504;2022-09-02T08:17:55;2.15;;;1.33;;
37715;SDS011;23562;50.540;12.504;2022-09-02T08:20:21;3.33;;;1.38;;
37715;SDS011;23562;50.540;12.504;2022-09-02T08:22:47;3.65;;;1.23;;
37715;SDS011;23562;50.540;12.504;2022-09-02T08:25:14;1.73;;;1.47;;
37715;SDS011;23562;50.540;12.504;2022-09-02T08:27:42;2.60;;;1.50;;
37715;SDS011;23562;50.540;12.504;2022-09-02T08:30:26;2.33;;;1.20;;
37715;SDS011;23562;50.540;12.504;2022-09-02T08:32:51;2.33;;;1.17;;
37715;SDS011;23562;50.540;12.504;2022-09-02T08:35:20;1.73;;;1.23;;
37715;SDS011;23562;50.540;12.504;2022-09-02T08:37:45;1.70;;;1.25;;
37715;SDS011;23562;50.540;12.504;2022-09-02T08:40:21;3.78;;;1.42;;
37715;SDS011;23562;50.540;12.504;2022-09-02T08:42:50;3.85;;;1.40;;
37715;SDS011;23562;50.540;12.504;2022-09-02T08:48:18;1.80;;;1.33;;
37715;SDS011;23562;50.540;12.504;2022-09-02T08:50:48;2.17;;;1.20;;
37715;SDS011;23562;50.540;12.504;2022-09-02T08:53:33;1.40;;;1.27;;
37715;SDS011;23562;50.540;12.504;2022-09-02T08:56:19;4.07;;;1.55;;
37715;SDS011;23562;50.540;12.504;2022-09-02T08:58:47;2.20;;;1.50;;
37715;SDS011;23562;50.540;12.504;2022-09-02T09:01:19;2.47;;;1.25;;
37715;SDS011;23562;50.540;12.504;2022-09-02T09:03:56;3.25;;;1.60;;
37715;SDS011;23562;50.540;12.504;2022-09-02T09:06:37;2.95;;;1.33;;
37715;SDS011;23562;50.540;12.504;2022-09-02T09:09:29;3.47;;;1.80;;
37715;SDS011;23562;50.540;12.504;2022-09-02T09:17:51;1.75;;;1.15;;
37715;SDS011;23562;50.540;12.504;2022-09-02T09:20:41;2.33;;;1.20;;
37715;SDS011;23562;50.540;12.504;2022-09-02T09:23:14;2.15;;;1.30;;
37715;SDS011;23562;50.540;12.504;2022-09-02T09:28:39;1.88;;;1.20;;
37715;SDS011;23562;50.540;12.504;2022-09-02T09:31:13;2.35;;;1.50;;
37715;SDS011;23562;50.540;12.504;2022-09-02T09:33:54;1.75;;;1.20;;
37715;SDS011;23562;50.540;12.504;2022-09-02T09:39:21;2.67;;;1.30;;
37715;SDS011;23562;50.540;12.504;2022-09-02T09:41:49;2.60;;;1.30;;
37715;SDS011;23562;50.540;12.504;2022-09-02T09:47:09;1.80;;;1.15;;
37715;SDS011;23562;50.540;12.504;2022-09-02T09:49:43;1.92;;;1.30;;
37715;SDS011;23562;50.540;12.504;2022-09-02T09:52:28;1.87;;;1.40;;
37715;SDS011;23562;50.540;12.504;2022-09-02T09:55:05;1.52;;;1.00;;
37715;SDS011;23562;50.540;12.504;2022-09-02T09:57:38;2.97;;;1.40;;
37715;SDS011;23562;50.540;12.504;2022-09-02T10:00:12;4.68;;;1.77;;
37715;SDS011;23562;50.540;12.504;2022-09-02T10:02:45;2.65;;;1.40;;
37715;SDS011;23562;50.540;12.504;2022-09-02T10:05:16;2.45;;;1.20;;
37715;SDS011;23562;50.540;12.504;2022-09-02T10:07:57;2.53;;;1.27;;
37715;SDS011;23562;50.540;12.504;2022-09-02T10:10:26;1.60;;;1.20;;
37715;SDS011;23562;50.540;12.504;2022-09-02T10:12:54;2.88;;;1.13;;
37715;SDS011;23562;50.540;12.504;2022-09-02T10:15:30;2.58;;;1.35;;
37715;SDS011;23562;50.540;12.504;2022-09-02T10:18:14;1.60;;;1.30;;
37715;SDS011;23562;50.540;12.504;2022-09-02T10:24:07;4.63;;;1.20;;
37715;SDS011;23562;50.540;12.504;2022-09-02T10:26:46;2.95;;;1.33;;
37715;SDS011;23562;50.540;12.504;2022-09-02T10:31:52;1.73;;;1.30;;
37715;SDS011;23562;50.540;12.504;2022-09-02T10:34:46;1.92;;;1.27;;
37715;SDS011;23562;50.540;12.504;2022-09-02T10:37:42;2.60;;;1.27;;
37715;SDS011;23562;50.540;12.504;2022-09-02T10:40:25;1.85;;;1.30;;
37715;SDS011;23562;50.540;12.504;2022-09-02T10:43:05;4.78;;;1.50;;
37715;SDS011;23562;50.540;12.504;2022-09-02T10:45:40;4.32;;;1.40;;
37715;SDS011;23562;50.540;12.504;2022-09-02T10:54:32;1.73;;;1.13;;
37715;SDS011;23562;50.540;12.504;2022-09-02T10:57:17;2.55;;;1.00;;
37715;SDS011;23562;50.540;12.504;2022-09-02T10:59:49;2.10;;;1.02;;
37715;SDS011;23562;50.540;12.504;2022-09-02T11:02:33;1.80;;;1.20;;
37715;SDS011;23562;50.540;12.504;2022-09-02T11:05:04;1.63;;;1.10;;
37715;SDS011;23562;50.540;12.504;2022-09-02T11:07:37;1.73;;;1.00;;
37715;SDS011;23562;50.540;12.504;2022-09-02T11:10:10;1.98;;;1.10;;
37715;SDS011;23562;50.540;12.504;2022-09-02T11:24:30;1.40;;;1.10;;
37715;SDS011;23562;50.540;12.504;2022-09-02T11:29:42;1.95;;;1.25;;
37715;SDS011;23562;50.540;12.504;2022-09-02T11:32:27;3.47;;;1.23;;
37715;SDS011;23562;50.540;12.504;2022-09-02T11:35:00;2.90;;;1.08;;
37715;SDS011;23562;50.540;12.504;2022-09-02T11:37:42;1.58;;;1.00;;
37715;SDS011;23562;50.540;12.504;2022-09-02T11:40:16;2.45;;;1.25;;
37715;SDS011;23562;50.540;12.504;2022-09-02T11:43:01;1.30;;;0.98;;
37715;SDS011;23562;50.540;12.504;2022-09-02T11:45:55;1.55;;;1.00;;
37715;SDS011;23562;50.540;12.504;2022-09-02T11:48:30;3.72;;;1.10;;
37715;SDS011;23562;50.540;12.504;2022-09-02T11:51:16;1.80;;;1.20;;
37715;SDS011;23562;50.540;12.504;2022-09-02T11:54:06;1.10;;;1.00;;
37715;SDS011;23562;50.540;12.504;2022-09-02T11:56:39;3.22;;;1.02;;
37715;SDS011;23562;50.540;12.504;2022-09-02T11:59:07;1.88;;;1.30;;
37715;SDS011;23562;50.540;12.504;2022-09-02T12:01:53;2.28;;;1.30;;
37715;SDS011;23562;50.540;12.504;2022-09-02T12:04:21;2.78;;;1.13;;
37715;SDS011;23562;50.540;12.504;2022-09-02T12:18:24;1.23;;;1.10;;
37715;SDS011;23562;50.540;12.504;2022-09-02T12:23:07;2.97;;;1.27;;
37715;SDS011;23562;50.540;12.504;2022-09-02T12:25:35;2.20;;;1.35;;
37715;SDS011;23562;50.540;12.504;2022-09-02T12:36:07;1.55;;;1.17;;
37715;SDS011;23562;50.540;12.504;2022-09-02T12:38:35;1.00;;;0.95;;
37715;SDS011;23562;50.540;12.504;2022-09-02T12:49:05;3.40;;;1.50;;
37715;SDS011;23562;50.540;12.504;2022-09-02T12:51:59;1.55;;;1.30;;
37715;SDS011;23562;50.540;12.504;2022-09-02T12:54:47;2.90;;;1.13;;
37715;SDS011;23562;50.540;12.504;2022-09-02T12:57:17;1.60;;;1.25;;
37715;SDS011;23562;50.540;12.504;2022-09-02T12:59:43;3.92;;;1.75;;
37715;SDS011;23562;50.540;12.504;2022-09-02T13:02:16;4.35;;;3.08;;
37715;SDS011;23562;50.540;12.504;2022-09-02T13:05:06;4.03;;;2.50;;
37715;SDS011;23562;50.540;12.504;2022-09-02T13:15:43;3.00;;;2.42;;
37715;SDS011;23562;50.540;12.504;2022-09-02T13:24:26;3.40;;;1.30;;
37715;SDS011;23562;50.540;12.504;2022-09-02T13:32:29;2.13;;;1.10;;
37715;SDS011;23562;50.540;12.504;2022-09-02T13:34:56;3.97;;;1.23;;
37715;SDS011;23562;50.540;12.504;2022-09-02T13:40:18;1.40;;;1.20;;
37715;SDS011;23562;50.540;12.504;2022-09-02T13:42:51;1.80;;;1.10;;
37715;SDS011;23562;50.540;12.504;2022-09-02T13:45:36;2.13;;;1.20;;
37715;SDS011;23562;50.540;12.504;2022-09-02T13:48:04;2.17;;;1.30;;
37715;SDS011;23562;50.540;12.504;2022-09-02T13:50:32;2.00;;;1.10;;
37715;SDS011;23562;50.540;12.504;2022-09-02T13:53:02;1.80;;;1.20;;
37715;SDS011;23562;50.540;12.504;2022-09-02T13:55:30;6.07;;;1.70;;
37715;SDS011;23562;50.540;12.504;2022-09-02T13:57:57;1.98;;;1.40;;
37715;SDS011;23562;50.540;12.504;2022-09-02T14:00:26;9.70;;;5.05;;
37715;SDS011;23562;50.540;12.504;2022-09-02T14:02:58;4.47;;;1.90;;
37715;SDS011;23562;50.540;12.504;2022-09-02T14:05:26;3.78;;;2.40;;
37715;SDS011;23562;50.540;12.504;2022-09-02T14:07:53;2.33;;;1.20;;
37715;SDS011;23562;50.540;12.504;2022-09-02T14:10:23;3.80;;;2.40;;
37715;SDS011;23562;50.540;12.504;2022-09-02T14:12:51;3.25;;;1.98;;
37715;SDS011;23562;50.540;12.504;2022-09-02T14:15:22;4.30;;;2.00;;
37715;SDS011;23562;50.540;12.504;2022-09-02T14:18:09;2.63;;;2.10;;
37715;SDS011;23562;50.540;12.504;2022-09-02T14:20:38;2.90;;;1.27;;
37715;SDS011;23562;50.540;12.504;2022-09-02T14:23:18;2.65;;;1.90;;
37715;SDS011;23562;50.540;12.504;2022-09-02T14:25:48;6.13;;;3.78;;
37715;SDS011;23562;50.540;12.504;2022-09-02T14:28:19;5.00;;;1.73;;
37715;SDS011;23562;50.540;12.504;2022-09-02T14:31:00;2.20;;;1.30;;
37715;SDS011;23562;50.540;12.504;2022-09-02T14:36:12;2.42;;;1.67;;
37715;SDS011;23562;50.540;12.504;2022-09-02T14:38:56;3.17;;;1.35;;
37715;SDS011;23562;50.540;12.504;2022-09-02T14:41:33;2.10;;;1.50;;
37715;SDS011;23562;50.540;12.504;2022-09-02T14:46:46;2.20;;;1.27;;
37715;SDS011;23562;50.540;12.504;2022-09-02T14:49:18;2.20;;;1.30;;
37715;SDS011;23562;50.540;12.504;2022-09-02T14:54:11;2.40;;;1.40;;
37715;SDS011;23562;50.540;12.504;2022-09-02T14:56:56;2.72;;;1.17;;
37715;SDS011;23562;50.540;12.504;2022-09-02T14:59:21;1.25;;;1.10;;
37715;SDS011;23562;50.540;12.504;2022-09-02T15:01:50;1.17;;;1.08;;
37715;SDS011;23562;50.540;12.504;2022-09-02T15:04:19;2.03;;;1.20;;
37715;SDS011;23562;50.540;12.504;2022-09-02T15:06:45;2.15;;;1.27;;
37715;SDS011;23562;50.540;12.504;2022-09-02T15:09:11;1.70;;;1.27;;
37715;SDS011;23562;50.540;12.504;2022-09-02T15:11:41;1.83;;;1.15;;
37715;SDS011;23562;50.540;12.504;2022-09-02T15:14:09;1.27;;;1.10;;
37715;SDS011;23562;50.540;12.504;2022-09-02T15:16:36;1.55;;;1.10;;
37715;SDS011;23562;50.540;12.504;2022-09-02T15:19:02;1.50;;;1.20;;
37715;SDS011;23562;50.540;12.504;2022-09-02T15:21:27;1.50;;;1.10;;
37715;SDS011;23562;50.540;12.504;2022-09-02T15:23:52;1.87;;;1.20;;
37715;SDS011;23562;50.540;12.504;2022-09-02T15:26:17;2.07;;;1.17;;
37715;SDS011;23562;50.540;12.504;2022-09-02T15:28:42;2.25;;;1.20;;
37715;SDS011;23562;50.540;12.504;2022-09-02T15:31:09;1.10;;;1.00;;
37715;SDS011;23562;50.540;12.504;2022-09-02T15:33:34;3.08;;;1.23;;
37715;SDS011;23562;50.540;12.504;2022-09-02T15:36:03;1.92;;;1.00;;
37715;SDS011;23562;50.540;12.504;2022-09-02T15:38:33;2.40;;;1.05;;
37715;SDS011;23562;50.540;12.504;2022-09-02T15:41:12;2.03;;;1.10;;
37715;SDS011;23562;50.540;12.504;2022-09-02T15:43:39;2.67;;;1.30;;
37715;SDS011;23562;50.540;12.504;2022-09-02T15:46:27;1.58;;;1.20;;
37715;SDS011;23562;50.540;12.504;2022-09-02T15:48:54;2.22;;;1.20;;
37715;SDS011;23562;50.540;12.504;2022-09-02T15:51:23;2.05;;;1.20;;
37715;SDS011;23562;50.540;12.504;2022-09-02T15:53:55;2.10;;;1.17;;
37715;SDS011;23562;50.540;12.504;2022-09-02T15:56:23;3.42;;;1.60;;
37715;SDS011;23562;50.540;12.504;2022-09-02T15:58:54;1.90;;;1.30;;
37715;SDS011;23562;50.540;12.504;2022-09-02T16:01:21;3.67;;;1.40;;
37715;SDS011;23562;50.540;12.504;2022-09-02T16:03:47;2.83;;;1.60;;
37715;SDS011;23562;50.540;12.504;2022-09-02T16:06:13;2.10;;;1.50;;
37715;SDS011;23562;50.540;12.504;2022-09-02T16:08:38;5.20;;;1.88;;
37715;SDS011;23562;50.540;12.504;2022-09-02T16:11:04;2.07;;;1.30;;
37715;SDS011;23562;50.540;12.504;2022-09-02T16:13:31;2.05;;;1.85;;
37715;SDS011;23562;50.540;12.504;2022-09-02T16:15:59;2.85;;;1.33;;
37715;SDS011;23562;50.540;12.504;2022-09-02T16:18:25;3.75;;;1.42;;
37715;SDS011;23562;50.540;12.504;2022-09-02T16:20:50;1.93;;;1.50;;
37715;SDS011;23562;50.540;12.504;2022-09-02T16:23:15;2.37;;;1.30;;
37715;SDS011;23562;50.540;12.504;2022-09-02T16:25:40;2.20;;;1.30;;
37715;SDS011;23562;50.540;12.504;2022-09-02T16:28:06;3.38;;;1.30;;
37715;SDS011;23562;50.540;12.504;2022-09-02T16:30:31;1.40;;;1.10;;
37715;SDS011;23562;50.540;12.504;2022-09-02T16:32:56;2.77;;;1.13;;
37715;SDS011;23562;50.540;12.504;2022-09-02T16:35:21;4.07;;;1.30;;
37715;SDS011;23562;50.540;12.504;2022-09-02T16:37:47;2.85;;;1.70;;
37715;SDS011;23562;50.540;12.504;2022-09-02T16:40:12;2.35;;;1.50;;